Waddington, New York
Current Conditions -  °F | °C
As of 12:53 PM on Friday 28 Nov 2014 (Local Time) from KMSS Reporting Station
Overcast Overcast  
Wind Chill: 15°   Ceiling: 3200
Heat Index: 25°   Visibility: 9mi
Dew Point: 14°   Wind: 10mph
Humidity: 63%   Direction: 270°W
Pressure: 30.14"   Gusts: NA
Location:  44.86°N, 75.2°W
Report Text: KMSS 281753Z AUTO 27009KT 9SM SCT026 OVC032 M04/M10 A3014 RMK AO2 SNE53 SLP213 P0000 60000 T10391100 11039 21072 58010
Loading
Personal Weather Stations






























Interactive Weather Map New forecast layout! Learn more

10-Day Weather Forecast

Advertisements
Track Severe Weather on mobile